sensor_id;sensor_type;location;lat;lon;timestamp;temperature;humidity
71627;DHT22;59475;52.464;13.590;2023-05-16T00:00:05;14.11;82.85
71627;DHT22;59475;52.464;13.590;2023-05-16T00:02:36;14.07;83.22
71627;DHT22;59475;52.464;13.590;2023-05-16T00:05:03;14.05;83.24
71627;DHT22;59475;52.464;13.590;2023-05-16T00:07:31;14.03;83.41
71627;DHT22;59475;52.464;13.590;2023-05-16T00:09:58;14.07;83.55
71627;DHT22;59475;52.464;13.590;2023-05-16T00:12:23;14.03;83.68
71627;DHT22;59475;52.464;13.590;2023-05-16T00:14:49;14.07;83.54
71627;DHT22;59475;52.464;13.590;2023-05-16T00:17:15;14.05;83.58
71627;DHT22;59475;52.464;13.590;2023-05-16T00:19:42;14.04;83.56
71627;DHT22;59475;52.464;13.590;2023-05-16T00:22:09;14.05;83.70
71627;DHT22;59475;52.464;13.590;2023-05-16T00:24:35;13.98;83.73
71627;DHT22;59475;52.464;13.590;2023-05-16T00:27:01;13.94;84.20
71627;DHT22;59475;52.464;13.590;2023-05-16T00:29:28;13.95;84.02
71627;DHT22;59475;52.464;13.590;2023-05-16T00:31:54;13.91;83.87
71627;DHT22;59475;52.464;13.590;2023-05-16T00:34:20;13.91;84.12
71627;DHT22;59475;52.464;13.590;2023-05-16T00:36:46;13.90;83.90
71627;DHT22;59475;52.464;13.590;2023-05-16T00:39:12;13.93;83.58
71627;DHT22;59475;52.464;13.590;2023-05-16T00:41:37;13.91;83.68
71627;DHT22;59475;52.464;13.590;2023-05-16T00:44:03;13.87;83.48
71627;DHT22;59475;52.464;13.590;2023-05-16T00:46:28;13.97;83.18
71627;DHT22;59475;52.464;13.590;2023-05-16T00:48:54;13.91;83.14
71627;DHT22;59475;52.464;13.590;2023-05-16T00:51:19;13.90;83.32
71627;DHT22;59475;52.464;13.590;2023-05-16T00:53:45;13.85;83.77
71627;DHT22;59475;52.464;13.590;2023-05-16T00:56:10;13.85;83.90
71627;DHT22;59475;52.464;13.590;2023-05-16T00:58:36;13.84;84.18
71627;DHT22;59475;52.464;13.590;2023-05-16T01:01:02;13.78;84.33
71627;DHT22;59475;52.464;13.590;2023-05-16T01:03:30;13.76;84.70
71627;DHT22;59475;52.464;13.590;2023-05-16T01:05:56;13.74;84.58
71627;DHT22;59475;52.464;13.590;2023-05-16T01:08:22;13.74;84.77
71627;DHT22;59475;52.464;13.590;2023-05-16T01:13:51;13.63;85.22
71627;DHT22;59475;52.464;13.590;2023-05-16T01:16:43;13.52;85.59
71627;DHT22;59475;52.464;13.590;2023-05-16T01:21:52;13.47;85.94
71627;DHT22;59475;52.464;13.590;2023-05-16T01:24:34;13.43;86.10
71627;DHT22;59475;52.464;13.590;2023-05-16T01:27:03;13.35;86.49
71627;DHT22;59475;52.464;13.590;2023-05-16T01:29:30;13.34;86.64
71627;DHT22;59475;52.464;13.590;2023-05-16T01:31:56;13.28;86.88
71627;DHT22;59475;52.464;13.590;2023-05-16T01:34:22;13.28;87.17
71627;DHT22;59475;52.464;13.590;2023-05-16T01:37:13;13.23;87.20
71627;DHT22;59475;52.464;13.590;2023-05-16T01:39:45;13.25;87.35
71627;DHT22;59475;52.464;13.590;2023-05-16T01:42:14;13.21;87.34
71627;DHT22;59475;52.464;13.590;2023-05-16T01:44:42;13.14;87.59
71627;DHT22;59475;52.464;13.590;2023-05-16T01:47:13;13.05;87.90
71627;DHT22;59475;52.464;13.590;2023-05-16T01:54:59;12.92;88.63
71627;DHT22;59475;52.464;13.590;2023-05-16T01:57:28;12.92;88.44
71627;DHT22;59475;52.464;13.590;2023-05-16T01:59:55;12.90;88.77
71627;DHT22;59475;52.464;13.590;2023-05-16T02:02:20;12.87;88.48
71627;DHT22;59475;52.464;13.590;2023-05-16T02:04:46;12.85;88.20
71627;DHT22;59475;52.464;13.590;2023-05-16T02:07:11;12.81;88.21
71627;DHT22;59475;52.464;13.590;2023-05-16T02:09:39;12.77;88.03
71627;DHT22;59475;52.464;13.590;2023-05-16T02:12:04;12.71;88.29
71627;DHT22;59475;52.464;13.590;2023-05-16T02:14:30;12.68;88.11
71627;DHT22;59475;52.464;13.590;2023-05-16T02:16:56;12.63;88.43
71627;DHT22;59475;52.464;13.590;2023-05-16T02:19:21;12.60;88.38
71627;DHT22;59475;52.464;13.590;2023-05-16T02:21:46;12.57;88.23
71627;DHT22;59475;52.464;13.590;2023-05-16T02:24:12;12.54;88.23
71627;DHT22;59475;52.464;13.590;2023-05-16T02:26:37;12.54;88.24
71627;DHT22;59475;52.464;13.590;2023-05-16T02:29:02;12.49;88.41
71627;DHT22;59475;52.464;13.590;2023-05-16T02:31:31;12.47;88.20
71627;DHT22;59475;52.464;13.590;2023-05-16T02:33:59;12.47;87.99
71627;DHT22;59475;52.464;13.590;2023-05-16T02:36:24;12.42;87.77
71627;DHT22;59475;52.464;13.590;2023-05-16T02:38:50;12.36;87.95
71627;DHT22;59475;52.464;13.590;2023-05-16T02:41:15;12.36;87.90
71627;DHT22;59475;52.464;13.590;2023-05-16T02:43:41;12.32;87.55
71627;DHT22;59475;52.464;13.590;2023-05-16T02:46:28;12.30;87.19
71627;DHT22;59475;52.464;13.590;2023-05-16T02:48:56;12.24;87.30
71627;DHT22;59475;52.464;13.590;2023-05-16T02:51:24;12.21;86.98
71627;DHT22;59475;52.464;13.590;2023-05-16T02:53:50;12.14;86.95
71627;DHT22;59475;52.464;13.590;2023-05-16T02:56:16;12.12;86.91
71627;DHT22;59475;52.464;13.590;2023-05-16T02:58:42;12.05;86.85
71627;DHT22;59475;52.464;13.590;2023-05-16T03:01:08;11.99;86.99
71627;DHT22;59475;52.464;13.590;2023-05-16T03:03:35;11.95;87.23
71627;DHT22;59475;52.464;13.590;2023-05-16T03:06:01;11.95;86.97
71627;DHT22;59475;52.464;13.590;2023-05-16T03:08:26;11.89;86.93
71627;DHT22;59475;52.464;13.590;2023-05-16T03:10:52;11.95;87.06
71627;DHT22;59475;52.464;13.590;2023-05-16T03:13:17;11.91;86.67
71627;DHT22;59475;52.464;13.590;2023-05-16T03:15:43;11.88;86.93
71627;DHT22;59475;52.464;13.590;2023-05-16T03:18:09;11.87;86.84
71627;DHT22;59475;52.464;13.590;2023-05-16T03:20:36;11.87;86.78
71627;DHT22;59475;52.464;13.590;2023-05-16T03:23:01;11.89;86.75
71627;DHT22;59475;52.464;13.590;2023-05-16T03:25:27;11.87;86.79
71627;DHT22;59475;52.464;13.590;2023-05-16T03:27:52;11.82;86.94
71627;DHT22;59475;52.464;13.590;2023-05-16T03:30:18;11.82;87.06
71627;DHT22;59475;52.464;13.590;2023-05-16T03:32:44;11.81;86.86
71627;DHT22;59475;52.464;13.590;2023-05-16T03:35:10;11.81;87.07
71627;DHT22;59475;52.464;13.590;2023-05-16T03:37:36;11.81;86.72
71627;DHT22;59475;52.464;13.590;2023-05-16T03:40:02;11.84;86.75
71627;DHT22;59475;52.464;13.590;2023-05-16T03:42:29;11.85;86.73
71627;DHT22;59475;52.464;13.590;2023-05-16T03:44:55;11.82;86.70
71627;DHT22;59475;52.464;13.590;2023-05-16T03:47:21;11.80;86.74
71627;DHT22;59475;52.464;13.590;2023-05-16T03:49:46;11.81;86.76
71627;DHT22;59475;52.464;13.590;2023-05-16T03:52:11;11.77;86.86
71627;DHT22;59475;52.464;13.590;2023-05-16T03:54:37;11.74;86.84
71627;DHT22;59475;52.464;13.590;2023-05-16T03:57:02;11.74;87.08
71627;DHT22;59475;52.464;13.590;2023-05-16T03:59:28;11.67;87.06
71627;DHT22;59475;52.464;13.590;2023-05-16T04:01:53;11.71;87.44
71627;DHT22;59475;52.464;13.590;2023-05-16T04:04:18;11.71;87.19
71627;DHT22;59475;52.464;13.590;2023-05-16T04:06:44;11.70;87.26
71627;DHT22;59475;52.464;13.590;2023-05-16T04:09:09;11.69;87.23
71627;DHT22;59475;52.464;13.590;2023-05-16T04:11:35;11.66;87.14
71627;DHT22;59475;52.464;13.590;2023-05-16T04:14:00;11.64;87.17
71627;DHT22;59475;52.464;13.590;2023-05-16T04:16:26;11.63;87.38
71627;DHT22;59475;52.464;13.590;2023-05-16T04:18:51;11.59;87.48
71627;DHT22;59475;52.464;13.590;2023-05-16T04:21:17;11.59;87.29
71627;DHT22;59475;52.464;13.590;2023-05-16T04:23:42;11.63;87.41
71627;DHT22;59475;52.464;13.590;2023-05-16T04:26:07;11.61;87.34
71627;DHT22;59475;52.464;13.590;2023-05-16T04:28:33;11.53;87.17
71627;DHT22;59475;52.464;13.590;2023-05-16T04:31:00;11.49;87.13
71627;DHT22;59475;52.464;13.590;2023-05-16T04:33:26;11.49;87.54
71627;DHT22;59475;52.464;13.590;2023-05-16T04:35:51;11.49;87.56
71627;DHT22;59475;52.464;13.590;2023-05-16T04:38:17;11.49;87.58
71627;DHT22;59475;52.464;13.590;2023-05-16T04:40:42;11.37;87.78
71627;DHT22;59475;52.464;13.590;2023-05-16T04:43:08;11.33;87.83
71627;DHT22;59475;52.464;13.590;2023-05-16T04:45:33;11.33;88.02
71627;DHT22;59475;52.464;13.590;2023-05-16T04:47:59;11.32;88.05
71627;DHT22;59475;52.464;13.590;2023-05-16T04:50:25;11.20;88.35
71627;DHT22;59475;52.464;13.590;2023-05-16T04:52:50;11.20;88.22
71627;DHT22;59475;52.464;13.590;2023-05-16T04:55:16;11.20;88.06
71627;DHT22;59475;52.464;13.590;2023-05-16T04:57:41;11.19;87.91
71627;DHT22;59475;52.464;13.590;2023-05-16T05:00:07;11.19;88.22
71627;DHT22;59475;52.464;13.590;2023-05-16T05:02:34;11.19;88.19
71627;DHT22;59475;52.464;13.590;2023-05-16T05:05:00;11.20;88.04
71627;DHT22;59475;52.464;13.590;2023-05-16T05:07:25;11.20;87.73
71627;DHT22;59475;52.464;13.590;2023-05-16T05:09:52;11.20;87.78
71627;DHT22;59475;52.464;13.590;2023-05-16T05:12:20;11.19;88.00
71627;DHT22;59475;52.464;13.590;2023-05-16T05:14:46;11.19;87.67
71627;DHT22;59475;52.464;13.590;2023-05-16T05:17:11;11.20;87.58
71627;DHT22;59475;52.464;13.590;2023-05-16T05:19:36;11.27;87.58
71627;DHT22;59475;52.464;13.590;2023-05-16T05:22:02;11.20;87.42
71627;DHT22;59475;52.464;13.590;2023-05-16T05:24:27;11.20;87.58
71627;DHT22;59475;52.464;13.590;2023-05-16T05:26:53;11.25;87.34
71627;DHT22;59475;52.464;13.590;2023-05-16T05:29:18;11.16;87.28
71627;DHT22;59475;52.464;13.590;2023-05-16T05:31:43;11.12;87.54
71627;DHT22;59475;52.464;13.590;2023-05-16T05:34:09;11.11;87.70
71627;DHT22;59475;52.464;13.590;2023-05-16T05:36:34;11.09;87.38
71627;DHT22;59475;52.464;13.590;2023-05-16T05:39:00;11.15;87.24
71627;DHT22;59475;52.464;13.590;2023-05-16T05:41:25;11.15;87.09
71627;DHT22;59475;52.464;13.590;2023-05-16T05:43:51;11.12;86.98
71627;DHT22;59475;52.464;13.590;2023-05-16T05:46:16;11.11;87.32
71627;DHT22;59475;52.464;13.590;2023-05-16T05:48:42;11.11;87.11
71627;DHT22;59475;52.464;13.590;2023-05-16T05:51:07;11.11;87.13
71627;DHT22;59475;52.464;13.590;2023-05-16T05:53:33;11.13;87.10
71627;DHT22;59475;52.464;13.590;2023-05-16T05:55:58;11.18;86.89
71627;DHT22;59475;52.464;13.590;2023-05-16T05:58:24;11.22;86.68
71627;DHT22;59475;52.464;13.590;2023-05-16T06:00:49;11.26;86.65
71627;DHT22;59475;52.464;13.590;2023-05-16T06:03:15;11.25;86.53
71627;DHT22;59475;52.464;13.590;2023-05-16T06:05:40;11.30;86.70
71627;DHT22;59475;52.464;13.590;2023-05-16T06:08:06;11.22;86.44
71627;DHT22;59475;52.464;13.590;2023-05-16T06:10:31;11.25;86.52
71627;DHT22;59475;52.464;13.590;2023-05-16T06:12:57;11.25;86.29
71627;DHT22;59475;52.464;13.590;2023-05-16T06:15:22;11.23;86.49
71627;DHT22;59475;52.464;13.590;2023-05-16T06:17:47;11.27;86.43
71627;DHT22;59475;52.464;13.590;2023-05-16T06:20:13;11.30;86.35
71627;DHT22;59475;52.464;13.590;2023-05-16T06:22:39;11.25;86.42
71627;DHT22;59475;52.464;13.590;2023-05-16T06:25:05;11.26;86.50
71627;DHT22;59475;52.464;13.590;2023-05-16T06:27:30;11.27;85.94
71627;DHT22;59475;52.464;13.590;2023-05-16T06:29:56;11.27;84.88
71627;DHT22;59475;52.464;13.590;2023-05-16T06:32:21;11.34;84.00
71627;DHT22;59475;52.464;13.590;2023-05-16T06:34:47;11.40;84.07
71627;DHT22;59475;52.464;13.590;2023-05-16T06:37:13;11.40;83.63
71627;DHT22;59475;52.464;13.590;2023-05-16T06:39:38;11.49;82.78
71627;DHT22;59475;52.464;13.590;2023-05-16T06:42:04;11.49;82.92
71627;DHT22;59475;52.464;13.590;2023-05-16T06:44:29;11.36;82.85
71627;DHT22;59475;52.464;13.590;2023-05-16T06:46:54;11.34;83.31
71627;DHT22;59475;52.464;13.590;2023-05-16T06:49:20;11.34;83.26
71627;DHT22;59475;52.464;13.590;2023-05-16T06:51:45;11.42;82.90
71627;DHT22;59475;52.464;13.590;2023-05-16T06:54:11;11.53;83.14
71627;DHT22;59475;52.464;13.590;2023-05-16T06:56:36;11.64;82.46
71627;DHT22;59475;52.464;13.590;2023-05-16T06:59:01;11.69;82.18
71627;DHT22;59475;52.464;13.590;2023-05-16T07:01:27;11.64;82.12
71627;DHT22;59475;52.464;13.590;2023-05-16T07:03:53;11.73;82.08
71627;DHT22;59475;52.464;13.590;2023-05-16T07:06:18;11.71;81.91
71627;DHT22;59475;52.464;13.590;2023-05-16T07:08:43;11.74;81.94
71627;DHT22;59475;52.464;13.590;2023-05-16T07:11:09;11.61;82.06
71627;DHT22;59475;52.464;13.590;2023-05-16T07:13:36;11.61;81.56
71627;DHT22;59475;52.464;13.590;2023-05-16T07:16:01;11.56;81.82
71627;DHT22;59475;52.464;13.590;2023-05-16T07:18:27;11.61;82.05
71627;DHT22;59475;52.464;13.590;2023-05-16T07:20:52;11.69;81.71
71627;DHT22;59475;52.464;13.590;2023-05-16T07:23:18;11.75;81.63
71627;DHT22;59475;52.464;13.590;2023-05-16T07:25:47;11.77;81.41
71627;DHT22;59475;52.464;13.590;2023-05-16T07:28:12;11.78;81.48
71627;DHT22;59475;52.464;13.590;2023-05-16T07:30:37;11.78;81.24
71627;DHT22;59475;52.464;13.590;2023-05-16T07:33:03;11.94;81.16
71627;DHT22;59475;52.464;13.590;2023-05-16T07:35:28;11.92;80.61
71627;DHT22;59475;52.464;13.590;2023-05-16T07:37:54;11.95;80.46
71627;DHT22;59475;52.464;13.590;2023-05-16T07:40:19;11.97;80.77
71627;DHT22;59475;52.464;13.590;2023-05-16T07:42:50;11.99;80.83
71627;DHT22;59475;52.464;13.590;2023-05-16T07:45:16;11.88;80.43
71627;DHT22;59475;52.464;13.590;2023-05-16T07:47:41;11.89;81.09
71627;DHT22;59475;52.464;13.590;2023-05-16T07:50:07;12.08;80.81
71627;DHT22;59475;52.464;13.590;2023-05-16T07:52:32;12.05;80.17
71627;DHT22;59475;52.464;13.590;2023-05-16T07:54:57;12.04;80.20
71627;DHT22;59475;52.464;13.590;2023-05-16T07:57:23;12.21;80.15
71627;DHT22;59475;52.464;13.590;2023-05-16T07:59:49;12.21;79.89
71627;DHT22;59475;52.464;13.590;2023-05-16T08:02:16;12.36;79.57
71627;DHT22;59475;52.464;13.590;2023-05-16T08:04:41;12.53;78.82
71627;DHT22;59475;52.464;13.590;2023-05-16T08:07:07;12.57;78.86
71627;DHT22;59475;52.464;13.590;2023-05-16T08:09:33;12.35;78.09
71627;DHT22;59475;52.464;13.590;2023-05-16T08:11:59;12.25;78.93
71627;DHT22;59475;52.464;13.590;2023-05-16T08:14:31;12.15;79.11
71627;DHT22;59475;52.464;13.590;2023-05-16T08:17:01;12.24;79.08
71627;DHT22;59475;52.464;13.590;2023-05-16T08:19:26;12.26;78.54
71627;DHT22;59475;52.464;13.590;2023-05-16T08:21:51;12.12;78.84
71627;DHT22;59475;52.464;13.590;2023-05-16T08:24:17;12.05;79.09
71627;DHT22;59475;52.464;13.590;2023-05-16T08:26:42;12.15;79.28
71627;DHT22;59475;52.464;13.590;2023-05-16T08:29:07;12.18;78.99
71627;DHT22;59475;52.464;13.590;2023-05-16T08:31:33;11.99;78.67
71627;DHT22;59475;52.464;13.590;2023-05-16T08:33:58;12.18;79.01
71627;DHT22;59475;52.464;13.590;2023-05-16T08:36:26;12.32;79.27
71627;DHT22;59475;52.464;13.590;2023-05-16T08:38:51;12.24;78.44
71627;DHT22;59475;52.464;13.590;2023-05-16T08:41:17;12.36;78.74
71627;DHT22;59475;52.464;13.590;2023-05-16T08:43:42;12.35;78.09
71627;DHT22;59475;52.464;13.590;2023-05-16T08:46:08;12.32;77.70
71627;DHT22;59475;52.464;13.590;2023-05-16T08:48:33;12.26;78.17
71627;DHT22;59475;52.464;13.590;2023-05-16T08:51:01;12.26;78.39
71627;DHT22;59475;52.464;13.590;2023-05-16T08:53:31;12.26;78.51
71627;DHT22;59475;52.464;13.590;2023-05-16T08:55:59;12.22;78.05
71627;DHT22;59475;52.464;13.590;2023-05-16T08:58:25;12.04;78.32
71627;DHT22;59475;52.464;13.590;2023-05-16T09:00:52;11.89;78.72
71627;DHT22;59475;52.464;13.590;2023-05-16T09:03:18;12.04;78.73
71627;DHT22;59475;52.464;13.590;2023-05-16T09:05:45;12.02;79.10
71627;DHT22;59475;52.464;13.590;2023-05-16T09:08:11;12.15;78.40
71627;DHT22;59475;52.464;13.590;2023-05-16T09:10:36;12.09;77.24
71627;DHT22;59475;52.464;13.590;2023-05-16T09:13:01;12.14;77.62
71627;DHT22;59475;52.464;13.590;2023-05-16T09:15:31;12.24;77.56
71627;DHT22;59475;52.464;13.590;2023-05-16T09:17:59;12.14;77.14
71627;DHT22;59475;52.464;13.590;2023-05-16T09:20:26;12.26;77.02
71627;DHT22;59475;52.464;13.590;2023-05-16T09:22:58;12.42;76.73
71627;DHT22;59475;52.464;13.590;2023-05-16T09:25:26;12.43;76.08
71627;DHT22;59475;52.464;13.590;2023-05-16T09:27:53;12.46;75.97
71627;DHT22;59475;52.464;13.590;2023-05-16T09:30:22;12.63;75.66
71627;DHT22;59475;52.464;13.590;2023-05-16T09:32:52;12.80;75.14
71627;DHT22;59475;52.464;13.590;2023-05-16T09:35:19;12.80;74.56
71627;DHT22;59475;52.464;13.590;2023-05-16T09:37:49;12.83;74.59
71627;DHT22;59475;52.464;13.590;2023-05-16T09:40:19;12.81;74.53
71627;DHT22;59475;52.464;13.590;2023-05-16T09:42:44;12.57;74.82
71627;DHT22;59475;52.464;13.590;2023-05-16T09:45:14;12.57;75.24
71627;DHT22;59475;52.464;13.590;2023-05-16T09:47:41;12.61;74.98
71627;DHT22;59475;52.464;13.590;2023-05-16T09:50:12;12.76;75.26
71627;DHT22;59475;52.464;13.590;2023-05-16T09:52:39;12.74;74.61
71627;DHT22;59475;52.464;13.590;2023-05-16T09:55:08;12.95;74.65
71627;DHT22;59475;52.464;13.590;2023-05-16T09:57:37;12.88;74.00
71627;DHT22;59475;52.464;13.590;2023-05-16T10:00:08;12.77;74.74
71627;DHT22;59475;52.464;13.590;2023-05-16T10:02:36;12.80;74.81
71627;DHT22;59475;52.464;13.590;2023-05-16T10:05:03;12.84;73.47
71627;DHT22;59475;52.464;13.590;2023-05-16T10:07:30;12.83;73.54
71627;DHT22;59475;52.464;13.590;2023-05-16T10:09:57;12.92;72.62
71627;DHT22;59475;52.464;13.590;2023-05-16T10:12:29;13.11;72.35
71627;DHT22;59475;52.464;13.590;2023-05-16T10:14:56;13.16;71.56
71627;DHT22;59475;52.464;13.590;2023-05-16T10:17:23;13.29;71.18
71627;DHT22;59475;52.464;13.590;2023-05-16T10:19:49;13.30;71.23
71627;DHT22;59475;52.464;13.590;2023-05-16T10:22:15;13.04;71.58
71627;DHT22;59475;52.464;13.590;2023-05-16T10:27:28;12.95;72.67
71627;DHT22;59475;52.464;13.590;2023-05-16T10:29:54;12.97;72.19
71627;DHT22;59475;52.464;13.590;2023-05-16T10:32:22;12.87;72.02
71627;DHT22;59475;52.464;13.590;2023-05-16T10:34:47;12.90;72.69
71627;DHT22;59475;52.464;13.590;2023-05-16T10:37:13;12.98;72.52
71627;DHT22;59475;52.464;13.590;2023-05-16T10:39:38;12.97;72.58
71627;DHT22;59475;52.464;13.590;2023-05-16T10:42:05;12.90;72.64
71627;DHT22;59475;52.464;13.590;2023-05-16T10:44:32;12.87;72.98
71627;DHT22;59475;52.464;13.590;2023-05-16T10:46:59;12.84;73.00
71627;DHT22;59475;52.464;13.590;2023-05-16T10:49:26;12.77;73.56
71627;DHT22;59475;52.464;13.590;2023-05-16T10:52:08;12.63;74.38
71627;DHT22;59475;52.464;13.590;2023-05-16T10:54:43;12.57;74.70
71627;DHT22;59475;52.464;13.590;2023-05-16T10:57:17;12.67;74.63
71627;DHT22;59475;52.464;13.590;2023-05-16T10:59:46;13.01;73.73
71627;DHT22;59475;52.464;13.590;2023-05-16T11:02:32;13.21;73.44
71627;DHT22;59475;52.464;13.590;2023-05-16T11:05:00;13.28;72.88
71627;DHT22;59475;52.464;13.590;2023-05-16T11:07:31;13.38;72.03
71627;DHT22;59475;52.464;13.590;2023-05-16T11:10:16;13.18;73.16
71627;DHT22;59475;52.464;13.590;2023-05-16T11:12:48;13.08;73.40
71627;DHT22;59475;52.464;13.590;2023-05-16T11:15:26;12.95;73.83
71627;DHT22;59475;52.464;13.590;2023-05-16T11:18:09;13.00;73.75
71627;DHT22;59475;52.464;13.590;2023-05-16T11:20:36;12.95;74.59
71627;DHT22;59475;52.464;13.590;2023-05-16T11:23:18;12.87;74.68
71627;DHT22;59475;52.464;13.590;2023-05-16T11:25:57;12.81;74.95
71627;DHT22;59475;52.464;13.590;2023-05-16T11:28:24;12.67;74.44
71627;DHT22;59475;52.464;13.590;2023-05-16T11:30:54;12.52;75.08
71627;DHT22;59475;52.464;13.590;2023-05-16T11:33:22;12.37;74.55
71627;DHT22;59475;52.464;13.590;2023-05-16T11:36:06;12.32;73.77
71627;DHT22;59475;52.464;13.590;2023-05-16T11:38:32;12.54;74.15
71627;DHT22;59475;52.464;13.590;2023-05-16T11:41:04;12.63;71.81
71627;DHT22;59475;52.464;13.590;2023-05-16T11:43:41;12.81;71.82
71627;DHT22;59475;52.464;13.590;2023-05-16T11:46:13;13.02;70.69
71627;DHT22;59475;52.464;13.590;2023-05-16T11:48:39;13.15;69.69
71627;DHT22;59475;52.464;13.590;2023-05-16T11:51:04;13.28;68.94
71627;DHT22;59475;52.464;13.590;2023-05-16T11:53:30;13.26;68.84
71627;DHT22;59475;52.464;13.590;2023-05-16T11:55:56;13.23;68.93
71627;DHT22;59475;52.464;13.590;2023-05-16T11:58:24;13.26;68.72
71627;DHT22;59475;52.464;13.590;2023-05-16T12:00:50;13.29;69.00
71627;DHT22;59475;52.464;13.590;2023-05-16T12:03:17;13.28;68.99
71627;DHT22;59475;52.464;13.590;2023-05-16T12:05:50;13.28;69.00
71627;DHT22;59475;52.464;13.590;2023-05-16T12:08:17;13.23;69.31
71627;DHT22;59475;52.464;13.590;2023-05-16T12:10:42;13.50;69.36
71627;DHT22;59475;52.464;13.590;2023-05-16T12:13:08;13.62;68.43
71627;DHT22;59475;52.464;13.590;2023-05-16T12:15:33;14.52;67.37
71627;DHT22;59475;52.464;13.590;2023-05-16T12:17:59;15.10;64.32
71627;DHT22;59475;52.464;13.590;2023-05-16T12:20:24;15.36;62.10
71627;DHT22;59475;52.464;13.590;2023-05-16T12:22:51;14.90;60.85
71627;DHT22;59475;52.464;13.590;2023-05-16T12:25:33;14.46;61.80
71627;DHT22;59475;52.464;13.590;2023-05-16T12:28:06;14.41;62.91
71627;DHT22;59475;52.464;13.590;2023-05-16T12:30:32;14.21;63.26
71627;DHT22;59475;52.464;13.590;2023-05-16T12:33:07;13.97;63.77
71627;DHT22;59475;52.464;13.590;2023-05-16T12:35:34;14.08;63.98
71627;DHT22;59475;52.464;13.590;2023-05-16T12:38:08;14.25;64.10
71627;DHT22;59475;52.464;13.590;2023-05-16T12:40:38;14.35;63.25
71627;DHT22;59475;52.464;13.590;2023-05-16T12:43:11;14.36;62.25
71627;DHT22;59475;52.464;13.590;2023-05-16T12:45:37;14.32;63.35
71627;DHT22;59475;52.464;13.590;2023-05-16T12:48:11;14.04;65.06
71627;DHT22;59475;52.464;13.590;2023-05-16T12:50:38;13.81;65.77
71627;DHT22;59475;52.464;13.590;2023-05-16T12:53:03;13.66;65.76
71627;DHT22;59475;52.464;13.590;2023-05-16T12:55:28;13.78;66.57
71627;DHT22;59475;52.464;13.590;2023-05-16T12:57:54;13.87;65.64
71627;DHT22;59475;52.464;13.590;2023-05-16T13:00:20;14.00;64.38
71627;DHT22;59475;52.464;13.590;2023-05-16T13:02:47;14.28;64.48
71627;DHT22;59475;52.464;13.590;2023-05-16T13:05:13;14.35;63.03
71627;DHT22;59475;52.464;13.590;2023-05-16T13:07:38;14.56;62.51
71627;DHT22;59475;52.464;13.590;2023-05-16T13:10:07;14.84;62.28
71627;DHT22;59475;52.464;13.590;2023-05-16T13:12:38;14.88;62.29
71627;DHT22;59475;52.464;13.590;2023-05-16T13:15:06;15.23;60.96
71627;DHT22;59475;52.464;13.590;2023-05-16T13:17:34;15.38;59.10
71627;DHT22;59475;52.464;13.590;2023-05-16T13:20:01;15.58;60.14
71627;DHT22;59475;52.464;13.590;2023-05-16T13:22:27;15.79;56.36
71627;DHT22;59475;52.464;13.590;2023-05-16T13:24:53;16.00;57.36
71627;DHT22;59475;52.464;13.590;2023-05-16T13:27:18;16.45;56.82
71627;DHT22;59475;52.464;13.590;2023-05-16T13:29:43;16.59;53.79
71627;DHT22;59475;52.464;13.590;2023-05-16T13:32:09;16.56;53.63
71627;DHT22;59475;52.464;13.590;2023-05-16T13:34:34;16.79;55.42
71627;DHT22;59475;52.464;13.590;2023-05-16T13:36:59;16.94;53.62
71627;DHT22;59475;52.464;13.590;2023-05-16T13:39:25;16.80;52.21
71627;DHT22;59475;52.464;13.590;2023-05-16T13:41:51;16.89;52.07
71627;DHT22;59475;52.464;13.590;2023-05-16T13:44:17;17.16;52.61
71627;DHT22;59475;52.464;13.590;2023-05-16T13:46:43;17.14;51.82
71627;DHT22;59475;52.464;13.590;2023-05-16T13:49:08;16.94;52.39
71627;DHT22;59475;52.464;13.590;2023-05-16T13:51:34;16.93;51.27
71627;DHT22;59475;52.464;13.590;2023-05-16T13:53:59;16.77;51.13
71627;DHT22;59475;52.464;13.590;2023-05-16T13:56:25;16.72;51.13
71627;DHT22;59475;52.464;13.590;2023-05-16T13:58:50;16.72;50.92
71627;DHT22;59475;52.464;13.590;2023-05-16T14:01:16;16.87;50.42
71627;DHT22;59475;52.464;13.590;2023-05-16T14:03:41;16.97;49.81
71627;DHT22;59475;52.464;13.590;2023-05-16T14:06:07;16.84;49.55
71627;DHT22;59475;52.464;13.590;2023-05-16T14:08:33;16.89;49.84
71627;DHT22;59475;52.464;13.590;2023-05-16T14:10:58;16.83;49.81
71627;DHT22;59475;52.464;13.590;2023-05-16T14:13:23;16.55;50.55
71627;DHT22;59475;52.464;13.590;2023-05-16T14:15:49;16.22;51.45
71627;DHT22;59475;52.464;13.590;2023-05-16T14:18:14;16.22;51.55
71627;DHT22;59475;52.464;13.590;2023-05-16T14:20:39;16.16;52.55
71627;DHT22;59475;52.464;13.590;2023-05-16T14:23:05;16.18;50.66
71627;DHT22;59475;52.464;13.590;2023-05-16T14:25:31;16.22;50.45
71627;DHT22;59475;52.464;13.590;2023-05-16T14:27:56;16.52;50.74
71627;DHT22;59475;52.464;13.590;2023-05-16T14:30:21;16.82;48.19
71627;DHT22;59475;52.464;13.590;2023-05-16T14:32:47;16.69;47.65
71627;DHT22;59475;52.464;13.590;2023-05-16T14:35:13;16.54;48.29
71627;DHT22;59475;52.464;13.590;2023-05-16T14:37:38;16.48;48.27
71627;DHT22;59475;52.464;13.590;2023-05-16T14:40:04;16.45;47.53
71627;DHT22;59475;52.464;13.590;2023-05-16T14:42:30;16.45;48.50
71627;DHT22;59475;52.464;13.590;2023-05-16T14:44:56;16.44;47.60
71627;DHT22;59475;52.464;13.590;2023-05-16T14:47:22;16.34;47.31
71627;DHT22;59475;52.464;13.590;2023-05-16T14:49:48;16.40;47.55
71627;DHT22;59475;52.464;13.590;2023-05-16T14:52:13;16.35;47.45
71627;DHT22;59475;52.464;13.590;2023-05-16T14:54:38;16.35;47.61
71627;DHT22;59475;52.464;13.590;2023-05-16T14:57:04;16.42;47.71
71627;DHT22;59475;52.464;13.590;2023-05-16T14:59:30;16.62;47.25
71627;DHT22;59475;52.464;13.590;2023-05-16T15:01:55;16.61;47.32
71627;DHT22;59475;52.464;13.590;2023-05-16T15:04:20;16.59;46.82
71627;DHT22;59475;52.464;13.590;2023-05-16T15:06:46;16.59;46.23
71627;DHT22;59475;52.464;13.590;2023-05-16T15:09:11;16.73;46.12
71627;DHT22;59475;52.464;13.590;2023-05-16T15:11:37;16.80;45.85
71627;DHT22;59475;52.464;13.590;2023-05-16T15:14:03;16.99;44.53
71627;DHT22;59475;52.464;13.590;2023-05-16T15:16:29;17.07;43.99
71627;DHT22;59475;52.464;13.590;2023-05-16T15:18:54;17.11;43.70
71627;DHT22;59475;52.464;13.590;2023-05-16T15:21:19;16.97;43.91
71627;DHT22;59475;52.464;13.590;2023-05-16T15:23:45;16.86;43.52
71627;DHT22;59475;52.464;13.590;2023-05-16T15:26:10;16.72;44.35